createdAt,value
2019-01-19T00:00:00.905Z,1019.6
2019-01-19T00:05:00.351Z,1019.5
2019-01-19T00:10:00.348Z,1019.5
2019-01-19T00:15:00.310Z,1019.5
2019-01-19T00:20:00.329Z,1019.5
2019-01-19T00:25:00.395Z,1019.5
2019-01-19T00:30:00.761Z,1019.4
2019-01-19T00:35:00.520Z,1019.4
2019-01-19T00:40:00.374Z,1019.4
2019-01-19T00:45:00.175Z,1019.3
2019-01-19T00:50:00.342Z,1019.3
2019-01-19T00:55:00.356Z,1019.3
2019-01-19T01:00:00.642Z,1019.3
2019-01-19T01:05:00.283Z,1019.2
2019-01-19T01:10:00.348Z,1019.2
2019-01-19T01:15:00.273Z,1019.2
2019-01-19T01:20:00.306Z,1019.2
2019-01-19T01:25:00.802Z,1019.2
2019-01-19T01:30:00.499Z,1019.2
2019-01-19T01:35:00.440Z,1019.2
2019-01-19T01:40:00.418Z,1019.1
2019-01-19T01:45:00.455Z,1019.1
2019-01-19T01:50:00.280Z,1019.1
2019-01-19T01:54:59.980Z,1019.1
2019-01-19T02:00:00.231Z,1019
2019-01-19T02:05:00.205Z,1019
2019-01-19T02:10:00.266Z,1018.9
2019-01-19T02:15:00.246Z,1019
2019-01-19T02:20:00.253Z,1019
2019-01-19T02:25:00.323Z,1019
2019-01-19T02:30:00.443Z,1018.9
2019-01-19T02:35:00.018Z,1018.8
2019-01-19T02:40:00.054Z,1018.8
2019-01-19T02:45:00.468Z,1018.8
2019-01-19T02:50:00.240Z,1018.8
2019-01-19T02:55:00.242Z,1018.8
2019-01-19T03:00:00.302Z,1018.8
2019-01-19T03:04:59.984Z,1018.7
2019-01-19T03:09:59.968Z,1018.7
2019-01-19T03:15:00.249Z,1018.6
2019-01-19T03:20:00.294Z,1018.6
2019-01-19T03:24:59.928Z,1018.6
2019-01-19T03:29:59.791Z,1018.6
2019-01-19T03:34:59.983Z,1018.5
2019-01-19T03:39:59.985Z,1018.5
2019-01-19T03:44:59.958Z,1018.5
2019-01-19T03:51:22.093Z,1018.4
2019-01-19T03:54:59.944Z,1018.4
2019-01-19T04:00:00.131Z,1018.4
2019-01-19T04:04:59.711Z,1018.3
2019-01-19T04:10:00.027Z,1018.3
2019-01-19T04:14:59.791Z,1018.3
2019-01-19T04:20:00.032Z,1018.3
2019-01-19T04:24:59.774Z,1018.2
2019-01-19T04:29:59.882Z,1018.2
2019-01-19T04:34:59.773Z,1018.1
2019-01-19T04:39:59.927Z,1018.1
2019-01-19T04:44:59.796Z,1018
2019-01-19T04:49:59.920Z,1017.9
2019-01-19T04:54:59.947Z,1017.9
2019-01-19T05:00:00.531Z,1017.9
2019-01-19T05:04:59.798Z,1017.8
2019-01-19T05:09:59.669Z,1017.8
2019-01-19T05:15:00.223Z,1017.8
2019-01-19T05:19:59.829Z,1017.7
2019-01-19T05:24:59.786Z,1017.8
2019-01-19T05:29:59.833Z,1017.7
2019-01-19T05:34:59.857Z,1017.7
2019-01-19T05:39:59.748Z,1017.7
2019-01-19T05:44:59.907Z,1017.7
2019-01-19T05:49:59.822Z,1017.6
2019-01-19T05:54:59.539Z,1017.6
2019-01-19T05:59:59.974Z,1017.6
2019-01-19T06:04:59.773Z,1017.6
2019-01-19T06:09:59.737Z,1017.6
2019-01-19T06:14:59.749Z,1017.6
2019-01-19T06:20:24.992Z,1017.6
2019-01-19T06:24:59.671Z,1017.6
2019-01-19T06:29:59.803Z,1017.6
2019-01-19T06:34:59.628Z,1017.6
2019-01-19T06:39:59.739Z,1017.6
2019-01-19T06:44:59.851Z,1017.6
2019-01-19T06:49:59.725Z,1017.6
2019-01-19T06:54:59.674Z,1017.6
2019-01-19T06:59:59.627Z,1017.6
2019-01-19T07:04:59.492Z,1017.6
2019-01-19T07:09:59.693Z,1017.6
2019-01-19T07:14:59.669Z,1017.6
2019-01-19T07:19:59.588Z,1017.6
2019-01-19T07:24:59.679Z,1017.6
2019-01-19T07:29:59.813Z,1017.5
2019-01-19T07:34:59.758Z,1017.6
2019-01-19T07:39:59.747Z,1017.6
2019-01-19T07:44:59.622Z,1017.6
2019-01-19T07:49:59.456Z,1017.6
2019-01-19T07:54:59.568Z,1017.6
2019-01-19T07:59:59.819Z,1017.7
2019-01-19T08:04:59.625Z,1017.7
2019-01-19T08:09:59.631Z,1017.7
2019-01-19T08:14:59.466Z,1017.7
2019-01-19T08:19:59.616Z,1017.8
2019-01-19T08:24:59.349Z,1017.8
2019-01-19T08:29:59.589Z,1017.8
2019-01-19T08:34:59.386Z,1017.8
2019-01-19T08:39:59.350Z,1017.7
2019-01-19T08:44:59.490Z,1017.7
2019-01-19T08:49:59.669Z,1017.7
2019-01-19T08:54:59.679Z,1017.7
2019-01-19T08:59:59.466Z,1017.7
2019-01-19T09:04:59.342Z,1017.7
2019-01-19T09:09:59.320Z,1017.6
2019-01-19T09:14:59.634Z,1017.6
2019-01-19T09:19:59.491Z,1017.6
2019-01-19T09:24:59.281Z,1017.6
2019-01-19T09:29:59.447Z,1017.6
2019-01-19T09:34:59.294Z,1017.6
2019-01-19T09:39:59.374Z,1017.6
2019-01-19T09:44:59.588Z,1017.6
2019-01-19T09:49:59.335Z,1017.6
2019-01-19T09:54:59.560Z,1017.6
2019-01-19T09:59:59.310Z,1017.5
2019-01-19T10:04:59.487Z,1017.5
2019-01-19T10:09:59.202Z,1017.4
2019-01-19T10:14:59.207Z,1017.4
2019-01-19T10:19:59.396Z,1017.4
2019-01-19T10:24:59.151Z,1017.4
2019-01-19T10:29:59.515Z,1017.5
2019-01-19T10:34:59.486Z,1017.4
2019-01-19T10:39:59.218Z,1017.4
2019-01-19T10:44:59.642Z,1017.4
2019-01-19T10:49:59.407Z,1017.3
2019-01-19T10:54:59.370Z,1017.3
2019-01-19T10:59:59.406Z,1017.2
2019-01-19T11:04:59.340Z,1017.2
2019-01-19T11:09:59.137Z,1017.1
2019-01-19T11:14:59.391Z,1017.2
2019-01-19T11:19:59.303Z,1017.1
2019-01-19T11:24:59.392Z,1017
2019-01-19T11:29:59.176Z,1017
2019-01-19T11:34:59.123Z,1016.9
2019-01-19T11:39:59.406Z,1016.8
2019-01-19T11:44:59.153Z,1016.8
2019-01-19T11:49:59.446Z,1016.7
2019-01-19T11:54:59.278Z,1016.6
2019-01-19T11:59:59.254Z,1016.5
2019-01-19T12:04:59.111Z,1016.5
2019-01-19T12:09:59.273Z,1016.4
2019-01-19T12:14:59.060Z,1016.4
2019-01-19T12:19:59.461Z,1016.3
2019-01-19T12:24:59.399Z,1016.3
2019-01-19T12:29:59.261Z,1016.3
2019-01-19T12:34:59.324Z,1016.2
2019-01-19T12:39:59.139Z,1016.2
2019-01-19T12:44:59.059Z,1016.2
2019-01-19T12:49:59.179Z,1016.1
2019-01-19T12:54:59.217Z,1016.1
2019-01-19T12:59:59.373Z,1016
2019-01-19T13:04:59.291Z,1016
2019-01-19T13:09:59.195Z,1015.9
2019-01-19T13:14:58.940Z,1015.8
2019-01-19T13:20:25.369Z,1015.7
2019-01-19T13:24:59.082Z,1015.7
2019-01-19T13:29:59.169Z,1015.6
2019-01-19T13:34:59.015Z,1015.6
2019-01-19T13:39:59.026Z,1015.5
2019-01-19T13:44:59.082Z,1015.5
2019-01-19T13:49:58.938Z,1015.4
2019-01-19T13:54:59.028Z,1015.4
2019-01-19T13:59:59.073Z,1015.4
2019-01-19T14:04:59.306Z,1015.3
2019-01-19T14:09:58.962Z,1015.3
2019-01-19T14:14:59.035Z,1015.2
2019-01-19T14:19:58.987Z,1015.1
2019-01-19T14:24:59.162Z,1015.1
2019-01-19T14:29:58.940Z,1015
2019-01-19T14:34:58.890Z,1015.1
2019-01-19T14:39:59.087Z,1015
2019-01-19T14:44:59.239Z,1014.9
2019-01-19T14:49:59.425Z,1014.9
2019-01-19T14:54:59.723Z,1014.9
2019-01-19T14:59:59.390Z,1014.8
2019-01-19T15:04:59.061Z,1014.8
2019-01-19T15:09:59.268Z,1014.8
2019-01-19T15:14:59.577Z,1014.8
2019-01-19T15:19:59.043Z,1014.8
2019-01-19T15:24:59.152Z,1014.9
2019-01-19T15:29:59.008Z,1014.8
2019-01-19T15:34:58.979Z,1014.9
2019-01-19T15:39:59.182Z,1014.9
2019-01-19T15:44:59.183Z,1014.9
2019-01-19T15:49:59.109Z,1014.9
2019-01-19T15:54:59.139Z,1014.9
2019-01-19T15:59:59.004Z,1014.9
2019-01-19T16:04:59.041Z,1014.9
2019-01-19T16:09:59.180Z,1014.9
2019-01-19T16:14:59.350Z,1014.9
2019-01-19T16:19:59.369Z,1014.8
2019-01-19T16:26:47.713Z,1014.9
2019-01-19T16:29:58.662Z,1014.9
2019-01-19T16:34:59.406Z,1014.8
2019-01-19T16:40:20.490Z,1014.8
2019-01-19T16:44:58.740Z,1014.8
2019-01-19T16:49:59.145Z,1014.8
2019-01-19T16:54:59.193Z,1014.8
2019-01-19T16:59:59.670Z,1014.7
2019-01-19T17:04:59.178Z,1014.7
2019-01-19T17:09:58.901Z,1014.7
2019-01-19T17:14:58.605Z,1014.7
2019-01-19T17:19:59.016Z,1014.7
2019-01-19T17:24:58.883Z,1014.7
2019-01-19T17:29:59.074Z,1014.7
2019-01-19T17:34:59.009Z,1014.6
2019-01-19T17:39:58.755Z,1014.7
2019-01-19T17:44:59.046Z,1014.6
2019-01-19T17:49:58.781Z,1014.6
2019-01-19T17:54:58.630Z,1014.7
2019-01-19T17:59:59.758Z,1014.6
2019-01-19T18:04:59.152Z,1014.7
2019-01-19T18:09:58.975Z,1014.7
2019-01-19T18:14:59.366Z,1014.7
2019-01-19T18:19:58.784Z,1014.7
2019-01-19T18:24:58.910Z,1014.7
2019-01-19T18:29:58.995Z,1014.7
2019-01-19T18:34:58.846Z,1014.7
2019-01-19T18:39:58.837Z,1014.7
2019-01-19T18:44:58.979Z,1014.7
2019-01-19T18:51:34.225Z,1014.7
2019-01-19T18:54:58.629Z,1014.7
2019-01-19T18:59:58.771Z,1014.7
2019-01-19T19:04:58.646Z,1014.8
2019-01-19T19:10:02.231Z,1014.8
2019-01-19T19:14:58.910Z,1014.8
2019-01-19T19:19:58.724Z,1014.7
2019-01-19T19:24:58.811Z,1014.8
2019-01-19T19:29:58.633Z,1014.8
2019-01-19T19:34:58.829Z,1014.7
2019-01-19T19:39:59.317Z,1014.8
2019-01-19T19:44:58.811Z,1014.8
2019-01-19T19:49:58.962Z,1014.8
2019-01-19T19:54:58.639Z,1014.8
2019-01-19T19:59:58.955Z,1014.9
2019-01-19T20:04:58.771Z,1014.9
2019-01-19T20:09:58.678Z,1014.9
2019-01-19T20:14:58.587Z,1014.9
2019-01-19T20:19:59.483Z,1014.9
2019-01-19T20:24:58.997Z,1014.9
2019-01-19T20:29:59.226Z,1014.9
2019-01-19T20:34:58.687Z,1014.9
2019-01-19T20:39:58.843Z,1014.9
2019-01-19T20:44:58.772Z,1014.9
2019-01-19T20:49:59.110Z,1014.9
2019-01-19T20:54:58.899Z,1015
2019-01-19T20:59:58.401Z,1015
2019-01-19T21:04:59.315Z,1015
2019-01-19T21:09:58.271Z,1015
2019-01-19T21:14:58.711Z,1015
2019-01-19T21:19:59.164Z,1015
2019-01-19T21:24:58.589Z,1015
2019-01-19T21:29:58.965Z,1015
2019-01-19T21:34:58.477Z,1015
2019-01-19T21:39:58.936Z,1015.1
2019-01-19T21:44:58.548Z,1015.1
2019-01-19T21:49:58.887Z,1015.1
2019-01-19T21:54:58.501Z,1015.1
2019-01-19T21:59:58.436Z,1015.1
2019-01-19T22:04:58.812Z,1015.1
2019-01-19T22:09:58.763Z,1015.1
2019-01-19T22:14:58.390Z,1015.2
2019-01-19T22:19:58.798Z,1015.1
2019-01-19T22:24:58.406Z,1015.1
2019-01-19T22:29:58.500Z,1015.1
2019-01-19T22:34:58.783Z,1015.1
2019-01-19T22:39:59.079Z,1015.2
2019-01-19T22:44:58.278Z,1015.2
2019-01-19T22:49:58.505Z,1015.2
2019-01-19T22:54:58.738Z,1015.3
2019-01-19T22:59:59.016Z,1015.2
2019-01-19T23:04:58.231Z,1015.2
2019-01-19T23:09:58.972Z,1015.2
2019-01-19T23:14:58.913Z,1015.3
2019-01-19T23:19:58.652Z,1015.3
2019-01-19T23:24:58.704Z,1015.3
2019-01-19T23:29:58.435Z,1015.3
2019-01-19T23:34:58.372Z,1015.4
2019-01-19T23:39:58.780Z,1015.4
2019-01-19T23:44:59.150Z,1015.4
2019-01-19T23:49:58.831Z,1015.4
2019-01-19T23:54:58.662Z,1015.4
2019-01-19T23:59:58.710Z,1015.4
